createdAt,value
2023-01-03T00:02:39.453Z,98278.16
2023-01-03T00:05:42.637Z,98281.47
2023-01-03T00:08:44.978Z,98290.91
2023-01-03T00:12:07.936Z,98293.28
2023-01-03T00:15:10.665Z,98291.34
2023-01-03T00:18:12.255Z,98298.28
2023-01-03T00:21:13.796Z,98290.22
2023-01-03T00:24:15.612Z,98286.34
2023-01-03T00:27:17.392Z,98300.09
2023-01-03T00:30:18.946Z,98289.25
2023-01-03T00:33:20.571Z,98285.22
2023-01-03T00:36:22.061Z,98286.63
2023-01-03T00:39:23.734Z,98278.69
2023-01-03T00:42:25.292Z,98278.16
2023-01-03T00:45:28.979Z,98295.47
2023-01-03T00:48:34.441Z,98297.44
2023-01-03T00:51:38.172Z,98294.94
2023-01-03T00:54:39.677Z,98289.25
2023-01-03T00:57:41.294Z,98278.84
2023-01-03T01:00:42.869Z,98284.25
2023-01-03T01:03:47.432Z,98283.56
2023-01-03T01:06:52.235Z,98282.59
2023-01-03T01:09:53.742Z,98282.03
2023-01-03T01:12:55.904Z,98283.72
2023-01-03T01:16:06.923Z,98285.38
2023-01-03T01:19:08.443Z,98288.69
2023-01-03T01:22:11.685Z,98279.28
2023-01-03T01:25:13.309Z,98288.13
2023-01-03T01:28:14.935Z,98296.91
2023-01-03T01:31:19.498Z,98297.88
2023-01-03T01:34:21.297Z,98286.75
2023-01-03T01:37:22.873Z,98294.13
2023-01-03T01:40:24.353Z,98304.09
2023-01-03T01:43:44.708Z,98310.19
2023-01-03T01:46:46.302Z,98313.25
2023-01-03T01:49:52.222Z,98311.44
2023-01-03T01:52:59.901Z,98307.44
2023-01-03T01:56:07.816Z,98303.28
2023-01-03T01:59:11.319Z,98298.81
2023-01-03T02:02:17.151Z,98306.19
2023-01-03T02:05:20.841Z,98305.63
2023-01-03T02:08:22.556Z,98307.56
2023-01-03T02:11:29.785Z,98307.44
2023-01-03T02:14:49.683Z,98310.31
2023-01-03T02:18:00.012Z,98320.75
2023-01-03T02:21:20.033Z,98327.53
2023-01-03T02:25:14.860Z,98329.19
2023-01-03T02:28:41.004Z,98330.03
2023-01-03T02:32:12.397Z,98326.44
2023-01-03T02:35:25.062Z,98322.00
2023-01-03T02:38:32.607Z,98327.25
2023-01-03T02:41:44.440Z,98324.88
2023-01-03T02:45:05.853Z,98321.72
2023-01-03T02:48:15.791Z,98327.13
2023-01-03T02:51:40.155Z,98327.38
2023-01-03T02:54:49.807Z,98326.44
2023-01-03T02:57:56.299Z,98321.16
2023-01-03T03:01:02.071Z,98314.22
2023-01-03T03:04:06.863Z,98318.34
2023-01-03T03:07:15.610Z,98313.34
2023-01-03T03:10:35.811Z,98305.88
2023-01-03T03:13:43.932Z,98318.66
2023-01-03T03:16:50.147Z,98321.84
2023-01-03T03:20:15.980Z,98330.31
2023-01-03T03:23:39.865Z,98320.88
2023-01-03T03:26:44.863Z,98320.34
2023-01-03T03:29:46.969Z,98310.06
2023-01-03T03:32:53.190Z,98316.44
2023-01-03T03:36:04.157Z,98320.31
2023-01-03T03:39:28.683Z,98320.44
2023-01-03T03:43:09.980Z,98324.63
2023-01-03T03:46:29.723Z,98330.59
2023-01-03T03:49:39.659Z,98310.47
2023-01-03T03:52:46.626Z,98309.22
2023-01-03T03:55:54.123Z,98300.91
2023-01-03T03:58:59.981Z,98300.47
2023-01-03T04:02:05.055Z,98309.19
2023-01-03T04:05:11.022Z,98312.13
2023-01-03T04:08:13.182Z,98312.53
2023-01-03T04:11:17.261Z,98319.75
2023-01-03T04:14:18.913Z,98315.16
2023-01-03T04:17:20.481Z,98309.06
2023-01-03T04:20:22.000Z,98313.53
2023-01-03T04:23:24.302Z,98316.97
2023-01-03T04:26:25.822Z,98311.72
2023-01-03T04:29:27.354Z,98316.03
2023-01-03T04:32:28.975Z,98315.03
2023-01-03T04:35:31.962Z,98311.97
2023-01-03T04:38:33.523Z,98321.13
2023-01-03T04:41:35.031Z,98336.66
2023-01-03T04:44:36.516Z,98325.56
2023-01-03T04:47:38.081Z,98334.41
2023-01-03T04:50:39.788Z,98330.78
2023-01-03T04:53:41.255Z,98324.00
2023-01-03T04:56:42.765Z,98328.84
2023-01-03T04:59:44.370Z,98335.09
2023-01-03T05:02:45.895Z,98331.91
2023-01-03T05:05:47.500Z,98324.66
2023-01-03T05:08:50.111Z,98343.25
2023-01-03T05:11:51.610Z,98341.31
2023-01-03T05:14:53.338Z,98343.53
2023-01-03T05:17:54.923Z,98337.16
2023-01-03T05:21:15.083Z,98344.06
2023-01-03T05:24:35.168Z,98349.91
2023-01-03T05:27:36.713Z,98356.72
2023-01-03T05:30:38.163Z,98363.63
2023-01-03T05:33:40.963Z,98364.63
2023-01-03T05:36:42.612Z,98361.25
2023-01-03T05:39:44.136Z,98353.78
2023-01-03T05:42:45.684Z,98362.34
2023-01-03T05:45:52.216Z,98372.25
2023-01-03T05:48:53.870Z,98371.25
2023-01-03T05:51:55.775Z,98371.75
2023-01-03T05:54:57.322Z,98371.00
2023-01-03T05:57:59.062Z,98367.47
2023-01-03T06:01:08.413Z,98368.94
2023-01-03T06:04:10.132Z,98368.00
2023-01-03T06:07:11.740Z,98365.63
2023-01-03T06:10:13.386Z,98358.38
2023-01-03T06:13:14.908Z,98367.38
2023-01-03T06:16:50.709Z,98376.72
2023-01-03T06:19:52.321Z,98379.59
2023-01-03T06:22:54.806Z,98384.28
2023-01-03T06:25:56.357Z,98388.72
2023-01-03T06:28:59.267Z,98393.56
2023-01-03T06:32:06.889Z,98394.84
2023-01-03T06:35:11.455Z,98403.44
2023-01-03T06:38:13.064Z,98401.56
2023-01-03T06:41:15.924Z,98401.28
2023-01-03T06:44:17.590Z,98399.28
2023-01-03T06:47:42.253Z,98398.94
2023-01-03T06:51:02.693Z,98404.50
2023-01-03T06:54:04.700Z,98399.22
2023-01-03T06:57:06.345Z,98396.50
2023-01-03T07:00:08.541Z,98403.69
2023-01-03T07:03:11.749Z,98411.22
2023-01-03T07:06:14.066Z,98410.50
2023-01-03T07:09:15.975Z,98408.56
2023-01-03T07:12:39.137Z,98403.91
2023-01-03T07:15:45.071Z,98410.09
2023-01-03T07:18:54.779Z,98412.16
2023-01-03T07:21:56.958Z,98410.50
2023-01-03T07:24:58.567Z,98417.53
2023-01-03T07:28:05.767Z,98421.72
2023-01-03T07:31:08.125Z,98416.59
2023-01-03T07:34:10.136Z,98424.56
2023-01-03T07:37:11.726Z,98429.81
2023-01-03T07:40:13.336Z,98427.06
2023-01-03T07:43:33.658Z,98425.97
2023-01-03T07:46:35.447Z,98433.38
2023-01-03T07:49:40.806Z,98432.53
2023-01-03T07:52:46.180Z,98437.28
2023-01-03T07:55:47.791Z,98429.97
2023-01-03T07:58:51.876Z,98439.28
2023-01-03T08:01:54.091Z,98439.28
2023-01-03T08:04:55.701Z,98446.22
2023-01-03T08:07:57.257Z,98451.09
2023-01-03T08:11:18.057Z,98449.16
2023-01-03T08:14:25.343Z,98448.72
2023-01-03T08:17:27.942Z,98457.91
2023-01-03T08:20:29.796Z,98461.84
2023-01-03T08:23:31.379Z,98458.09
2023-01-03T08:26:33.117Z,98463.81
2023-01-03T08:29:34.669Z,98473.13
2023-01-03T08:33:24.576Z,98472.16
2023-01-03T08:36:31.627Z,98475.81
2023-01-03T08:39:58.079Z,98474.75
2023-01-03T08:42:59.751Z,98462.97
2023-01-03T08:46:03.541Z,98459.13
2023-01-03T08:49:05.357Z,98469.59
2023-01-03T08:52:07.136Z,98469.06
2023-01-03T08:55:09.357Z,98469.25
2023-01-03T08:58:10.952Z,98467.75
2023-01-03T09:01:12.809Z,98477.50
2023-01-03T09:04:14.506Z,98481.41
2023-01-03T09:07:16.175Z,98483.81
2023-01-03T09:10:17.644Z,98483.69
2023-01-03T09:13:19.156Z,98482.91
2023-01-03T09:16:20.694Z,98478.78
2023-01-03T09:19:22.590Z,98494.34
2023-01-03T09:22:24.150Z,98492.16
2023-01-03T09:25:25.663Z,98499.38
2023-01-03T09:28:27.331Z,98502.16
2023-01-03T09:31:32.636Z,98514.06
2023-01-03T09:34:34.722Z,98512.28
2023-01-03T09:37:36.333Z,98510.03
2023-01-03T09:40:44.156Z,98513.94
2023-01-03T09:43:48.445Z,98517.84
2023-01-03T09:46:50.098Z,98524.69
2023-01-03T09:53:57.869Z,98527.50
2023-01-03T09:57:21.802Z,98525.97
2023-01-03T10:01:03.531Z,98531.44
2023-01-03T10:04:11.388Z,98527.81
2023-01-03T10:07:43.352Z,98525.03
2023-01-03T10:11:06.307Z,98515.38
2023-01-03T10:14:25.946Z,98510.63
2023-01-03T10:17:51.293Z,98516.38
2023-01-03T10:21:26.159Z,98510.13
2023-01-03T10:24:32.965Z,98513.72
2023-01-03T10:27:44.914Z,98514.94
2023-01-03T10:31:08.095Z,98516.44
2023-01-03T10:34:12.117Z,98521.50
2023-01-03T10:37:17.815Z,98519.16
2023-01-03T10:40:19.524Z,98515.88
2023-01-03T10:43:39.190Z,98519.22
2023-01-03T10:46:50.514Z,98516.25
2023-01-03T10:49:58.519Z,98514.06
2023-01-03T10:53:06.032Z,98504.97
2023-01-03T10:56:08.032Z,98513.34
2023-01-03T10:59:18.052Z,98508.78
2023-01-03T11:02:20.039Z,98511.53
2023-01-03T11:05:26.841Z,98508.78
2023-01-03T11:08:37.091Z,98515.44
2023-01-03T11:11:42.516Z,98512.63
2023-01-03T11:14:56.226Z,98505.00
2023-01-03T11:18:02.655Z,98497.84
2023-01-03T11:21:18.275Z,98501.47
2023-01-03T11:24:40.782Z,98498.69
2023-01-03T11:28:16.832Z,98496.16
2023-01-03T11:31:40.580Z,98489.22
2023-01-03T11:35:25.736Z,98498.41
2023-01-03T11:38:27.401Z,98491.88
2023-01-03T11:41:36.523Z,98485.34
2023-01-03T11:45:19.962Z,98485.59
2023-01-03T11:48:50.465Z,98484.50
2023-01-03T11:52:22.178Z,98479.91
2023-01-03T11:56:05.277Z,98480.75
2023-01-03T11:59:13.736Z,98476.44
2023-01-03T12:02:30.343Z,98474.47
2023-01-03T12:05:34.638Z,98477.25
2023-01-03T12:08:48.278Z,98471.13
2023-01-03T12:12:11.044Z,98475.84
2023-01-03T12:15:24.679Z,98463.19
2023-01-03T12:18:42.998Z,98454.69
2023-01-03T12:21:51.589Z,98457.47
2023-01-03T12:25:05.077Z,98457.97
2023-01-03T12:28:13.283Z,98465.31
2023-01-03T12:31:31.122Z,98465.47
2023-01-03T12:34:42.641Z,98468.81
2023-01-03T12:37:47.558Z,98466.88
2023-01-03T12:41:17.758Z,98460.72
2023-01-03T12:44:30.128Z,98465.44
2023-01-03T12:47:38.800Z,98463.59
2023-01-03T12:50:51.449Z,98448.69
2023-01-03T12:54:04.958Z,98453.03
2023-01-03T12:57:37.440Z,98449.31
2023-01-03T13:01:06.240Z,98449.22
2023-01-03T13:04:12.429Z,98450.75
2023-01-03T13:07:19.130Z,98434.19
2023-01-03T13:10:25.411Z,98441.50
2023-01-03T13:13:32.450Z,98437.50
2023-01-03T13:16:37.159Z,98438.97
2023-01-03T13:19:52.062Z,98438.47
2023-01-03T13:23:22.743Z,98440.72
2023-01-03T13:26:28.775Z,98440.31
2023-01-03T13:29:33.293Z,98444.63
2023-01-03T13:32:49.142Z,98443.50
2023-01-03T13:35:59.928Z,98446.56
2023-01-03T13:39:01.535Z,98450.59
2023-01-03T13:42:03.250Z,98448.09
2023-01-03T13:45:10.805Z,98442.47
2023-01-03T13:48:22.606Z,98445.34
2023-01-03T13:51:33.880Z,98444.34
2023-01-03T13:54:56.096Z,98443.75
2023-01-03T13:57:57.629Z,98434.25
2023-01-03T14:01:06.104Z,98439.28
2023-01-03T14:04:29.831Z,98437.09
2023-01-03T14:08:14.393Z,98441.13
2023-01-03T14:11:39.959Z,98445.63
2023-01-03T14:14:42.162Z,98442.22
2023-01-03T14:17:48.293Z,98435.47
2023-01-03T14:20:53.756Z,98425.91
2023-01-03T14:24:00.618Z,98431.38
2023-01-03T14:27:10.099Z,98429.97
2023-01-03T14:30:24.099Z,98435.19
2023-01-03T14:33:31.294Z,98437.78
2023-01-03T14:36:45.960Z,98437.34
2023-01-03T14:39:59.592Z,98435.97
2023-01-03T14:43:04.909Z,98433.63
2023-01-03T14:46:10.866Z,98425.56
2023-01-03T14:49:20.745Z,98432.25
2023-01-03T14:52:37.757Z,98438.09
2023-01-03T14:55:40.433Z,98444.75
2023-01-03T14:58:47.185Z,98440.75
2023-01-03T15:01:49.297Z,98448.94
2023-01-03T15:04:56.023Z,98461.72
2023-01-03T15:08:09.225Z,98459.00
2023-01-03T15:11:13.917Z,98461.63
2023-01-03T15:14:15.768Z,98461.47
2023-01-03T15:17:25.384Z,98447.69
2023-01-03T15:20:38.701Z,98449.06
2023-01-03T15:23:47.999Z,98455.50
2023-01-03T15:27:00.846Z,98457.53
2023-01-03T15:30:14.598Z,98455.13
2023-01-03T15:33:21.066Z,98463.34
2023-01-03T15:36:31.707Z,98466.72
2023-01-03T15:39:48.796Z,98471.78
2023-01-03T15:43:10.100Z,98469.09
2023-01-03T15:46:15.236Z,98477.75
2023-01-03T15:49:21.328Z,98479.44
2023-01-03T15:52:22.941Z,98487.16
2023-01-03T15:55:24.863Z,98485.25
2023-01-03T15:58:36.996Z,98490.56
2023-01-03T16:01:38.691Z,98495.97
2023-01-03T16:04:40.447Z,98500.88
2023-01-03T16:07:42.405Z,98504.00
2023-01-03T16:10:43.987Z,98502.94
2023-01-03T16:13:49.708Z,98504.00
2023-01-03T16:16:54.145Z,98504.44
2023-01-03T16:19:56.885Z,98499.28
2023-01-03T16:23:01.725Z,98502.50
2023-01-03T16:26:04.344Z,98511.09
2023-01-03T16:29:05.890Z,98505.09
2023-01-03T16:32:37.868Z,98506.72
2023-01-03T16:39:27.328Z,98509.53
2023-01-03T16:42:29.088Z,98510.59
2023-01-03T16:45:30.983Z,98509.28
2023-01-03T16:48:52.271Z,98508.78
2023-01-03T16:51:58.047Z,98505.66
2023-01-03T16:55:30.184Z,98506.31
2023-01-03T16:58:31.798Z,98504.47
2023-01-03T17:01:33.389Z,98513.31
2023-01-03T17:04:35.134Z,98517.72
2023-01-03T17:07:36.937Z,98530.47
2023-01-03T17:10:40.144Z,98537.09
2023-01-03T17:13:44.659Z,98536.13
2023-01-03T17:16:47.379Z,98533.63
2023-01-03T17:20:06.266Z,98538.25
2023-01-03T17:23:09.129Z,98543.41
2023-01-03T17:26:38.575Z,98544.25
2023-01-03T17:29:40.270Z,98543.22
2023-01-03T17:32:41.975Z,98548.44
2023-01-03T17:35:45.767Z,98542.19
2023-01-03T17:38:47.464Z,98542.81
2023-01-03T17:42:10.001Z,98540.69
2023-01-03T17:45:30.942Z,98543.22
2023-01-03T17:48:50.718Z,98538.22
2023-01-03T17:51:56.395Z,98540.06
2023-01-03T17:54:58.277Z,98539.78
2023-01-03T17:58:02.958Z,98528.03
2023-01-03T18:01:08.096Z,98535.28
2023-01-03T18:04:12.887Z,98544.47
2023-01-03T18:07:21.185Z,98541.44
2023-01-03T18:10:38.708Z,98549.72
2023-01-03T18:13:46.271Z,98548.25
2023-01-03T18:16:54.709Z,98547.72
2023-01-03T18:20:01.520Z,98543.81
2023-01-03T18:23:03.100Z,98543.81
2023-01-03T18:26:08.178Z,98548.19
2023-01-03T18:29:15.097Z,98546.94
2023-01-03T18:32:31.420Z,98547.56
2023-01-03T18:35:37.698Z,98551.44
2023-01-03T18:38:41.540Z,98555.84
2023-01-03T18:41:43.647Z,98552.16
2023-01-03T18:44:45.357Z,98549.53
2023-01-03T18:47:46.978Z,98553.31
2023-01-03T18:50:57.472Z,98555.38
2023-01-03T18:53:59.799Z,98547.91
2023-01-03T18:57:01.731Z,98553.31
2023-01-03T19:00:04.014Z,98538.66
2023-01-03T19:03:20.437Z,98546.31
2023-01-03T19:06:30.286Z,98555.63
2023-01-03T19:09:32.719Z,98557.72
2023-01-03T19:12:38.894Z,98572.44
2023-01-03T19:15:48.089Z,98566.91
2023-01-03T19:19:03.959Z,98563.38
2023-01-03T19:22:25.643Z,98567.75
2023-01-03T19:25:28.730Z,98567.22
2023-01-03T19:28:30.260Z,98568.44
2023-01-03T19:31:42.627Z,98570.50
2023-01-03T19:34:44.380Z,98566.31
2023-01-03T19:37:46.751Z,98568.38
2023-01-03T19:40:49.220Z,98570.88
2023-01-03T19:43:50.866Z,98568.84
2023-01-03T19:46:52.560Z,98567.69
2023-01-03T19:49:54.971Z,98564.91
2023-01-03T19:52:57.142Z,98559.59
2023-01-03T19:55:59.055Z,98561.56
2023-01-03T19:59:03.287Z,98562.50
2023-01-03T20:02:36.343Z,98570.81
2023-01-03T20:05:38.019Z,98566.06
2023-01-03T20:12:47.852Z,98577.56
2023-01-03T20:15:52.116Z,98578.94
2023-01-03T20:18:56.743Z,98575.13
2023-01-03T20:21:58.715Z,98565.22
2023-01-03T20:25:00.457Z,98573.06
2023-01-03T20:28:02.187Z,98568.97
2023-01-03T20:31:06.571Z,98568.75
2023-01-03T20:34:09.813Z,98570.69
2023-01-03T20:37:19.126Z,98565.41
2023-01-03T20:40:24.373Z,98570.53
2023-01-03T20:43:26.097Z,98563.44
2023-01-03T20:46:32.923Z,98564.00
2023-01-03T20:49:41.198Z,98569.41
2023-01-03T20:52:42.717Z,98563.06
2023-01-03T20:55:44.345Z,98575.38
2023-01-03T20:58:45.845Z,98576.75
2023-01-03T21:01:49.064Z,98574.06
2023-01-03T21:04:50.947Z,98575.38
2023-01-03T21:08:11.269Z,98568.28
2023-01-03T21:11:13.468Z,98562.50
2023-01-03T21:14:15.034Z,98560.28
2023-01-03T21:17:16.710Z,98558.66
2023-01-03T21:20:21.731Z,98568.72
2023-01-03T21:23:23.672Z,98560.41
2023-01-03T21:26:25.686Z,98558.47
2023-01-03T21:29:27.783Z,98562.84
2023-01-03T21:32:29.365Z,98538.13
2023-01-03T21:35:31.096Z,98546.88
2023-01-03T21:38:32.711Z,98550.16
2023-01-03T21:41:55.735Z,98548.00
2023-01-03T21:44:57.263Z,98554.56
2023-01-03T21:47:59.759Z,98539.88
2023-01-03T21:51:04.585Z,98543.41
2023-01-03T21:54:08.038Z,98521.97
2023-01-03T21:57:09.890Z,98523.06
2023-01-03T22:00:12.750Z,98535.00
2023-01-03T22:03:34.743Z,98529.03
2023-01-03T22:06:37.142Z,98535.44
2023-01-03T22:09:57.363Z,98527.47
2023-01-03T22:13:02.012Z,98530.22
2023-01-03T22:16:08.434Z,98528.00
2023-01-03T22:19:09.996Z,98528.06
2023-01-03T22:22:11.586Z,98516.97
2023-01-03T22:25:23.591Z,98530.84
2023-01-03T22:28:25.253Z,98525.31
2023-01-03T22:31:26.901Z,98515.00
2023-01-03T22:34:28.615Z,98525.84
2023-01-03T22:37:30.277Z,98523.38
2023-01-03T22:40:31.873Z,98537.00
2023-01-03T22:43:34.285Z,98537.16
2023-01-03T22:46:35.857Z,98536.41
2023-01-03T22:49:37.723Z,98539.69
2023-01-03T22:52:40.119Z,98534.56
2023-01-03T22:55:42.666Z,98551.91
2023-01-03T22:58:45.413Z,98550.38
2023-01-03T23:01:47.218Z,98548.94
2023-01-03T23:04:48.885Z,98542.16
2023-01-03T23:07:50.825Z,98524.16
2023-01-03T23:11:12.310Z,98544.59
2023-01-03T23:14:16.988Z,98535.91
2023-01-03T23:17:44.814Z,98533.19
2023-01-03T23:20:49.044Z,98532.97
2023-01-03T23:23:50.833Z,98531.28
2023-01-03T23:26:52.971Z,98526.16
2023-01-03T23:29:55.022Z,98523.09
2023-01-03T23:32:56.501Z,98524.66
2023-01-03T23:36:09.497Z,98515.00
2023-01-03T23:39:17.825Z,98513.88
2023-01-03T23:42:19.378Z,98509.53
2023-01-03T23:45:20.966Z,98501.50
2023-01-03T23:48:22.560Z,98503.78
2023-01-03T23:51:24.676Z,98509.00
2023-01-03T23:54:26.192Z,98500.53
2023-01-03T23:57:27.693Z,98487.44
